createdAt,value
2022-10-03T00:01:31.524Z,11.00
2022-10-03T00:06:34.459Z,11.00
2022-10-03T00:11:37.536Z,10.80
2022-10-03T00:16:40.786Z,11.30
2022-10-03T00:21:44.721Z,10.50
2022-10-03T00:26:47.591Z,10.40
2022-10-03T00:31:51.169Z,10.40
2022-10-03T00:36:53.931Z,10.30
2022-10-03T00:41:57.003Z,10.30
2022-10-03T00:47:02.229Z,10.20
2022-10-03T00:52:05.155Z,10.10
2022-10-03T00:57:08.223Z,10.00
2022-10-03T01:02:11.227Z,9.90
2022-10-03T01:07:14.156Z,9.90
2022-10-03T01:12:17.016Z,9.90
2022-10-03T01:17:20.072Z,9.80
2022-10-03T01:22:22.783Z,9.80
2022-10-03T01:27:25.487Z,9.70
2022-10-03T01:32:28.966Z,9.70
2022-10-03T01:37:31.683Z,9.70
2022-10-03T01:42:34.359Z,9.70
2022-10-03T01:47:37.590Z,9.70
2022-10-03T01:52:40.564Z,9.80
2022-10-03T01:57:44.014Z,9.70
2022-10-03T02:02:46.698Z,9.80
2022-10-03T02:07:49.727Z,9.80
2022-10-03T02:12:52.430Z,9.90
2022-10-03T02:17:55.245Z,9.90
2022-10-03T02:22:57.989Z,9.90
2022-10-03T02:28:01.120Z,9.90
2022-10-03T02:33:04.427Z,9.80
2022-10-03T02:38:08.059Z,9.70
2022-10-03T02:43:10.837Z,9.60
2022-10-03T02:48:31.192Z,9.50
2022-10-03T02:53:34.936Z,9.60
2022-10-03T03:03:41.854Z,9.20
2022-10-03T03:08:44.653Z,9.10
2022-10-03T03:13:49.726Z,9.10
2022-10-03T03:18:53.720Z,9.00
2022-10-03T03:23:56.476Z,9.00
2022-10-03T03:28:59.246Z,9.10
2022-10-03T03:34:07.100Z,8.90
2022-10-03T03:39:11.158Z,8.90
2022-10-03T03:44:13.889Z,8.90
2022-10-03T03:49:16.620Z,8.80
2022-10-03T03:54:19.523Z,8.80
2022-10-03T03:59:22.274Z,8.80
2022-10-03T04:04:24.963Z,8.80
2022-10-03T04:09:27.638Z,8.80
2022-10-03T04:14:30.972Z,8.80
2022-10-03T04:19:33.762Z,8.80
2022-10-03T04:24:37.462Z,8.80
2022-10-03T04:29:40.441Z,8.80
2022-10-03T04:34:43.403Z,8.70
2022-10-03T04:39:46.101Z,8.60
2022-10-03T04:44:49.078Z,8.60
2022-10-03T04:49:52.511Z,8.60
2022-10-03T04:54:55.360Z,8.60
2022-10-03T04:59:58.168Z,8.60
2022-10-03T05:05:01.206Z,8.90
2022-10-03T05:10:08.269Z,8.50
2022-10-03T05:15:14.562Z,8.50
2022-10-03T05:20:17.377Z,8.50
2022-10-03T05:25:20.689Z,8.40
2022-10-03T05:30:23.798Z,8.90
2022-10-03T05:35:26.644Z,8.50
2022-10-03T05:40:29.514Z,8.80
2022-10-03T05:45:32.336Z,8.70
2022-10-03T05:50:45.200Z,8.80
2022-10-03T06:00:51.863Z,8.90
2022-10-03T06:05:57.641Z,8.90
2022-10-03T06:11:00.465Z,9.10
2022-10-03T06:16:03.302Z,9.20
2022-10-03T06:21:06.229Z,9.30
2022-10-03T06:26:09.011Z,9.40
2022-10-03T06:31:12.330Z,9.50
2022-10-03T06:36:15.159Z,9.60
2022-10-03T06:41:17.962Z,9.70
2022-10-03T06:46:20.862Z,9.80
2022-10-03T06:51:29.702Z,9.80
2022-10-03T06:56:33.338Z,10.00
2022-10-03T07:01:36.263Z,10.20
2022-10-03T07:06:39.379Z,10.50
2022-10-03T07:11:44.151Z,10.70
2022-10-03T07:16:47.205Z,10.70
2022-10-03T07:21:53.256Z,10.80
2022-10-03T07:26:57.537Z,11.00
2022-10-03T07:32:01.427Z,11.20
2022-10-03T07:37:22.372Z,11.20
2022-10-03T07:42:25.766Z,11.30
2022-10-03T07:47:28.517Z,11.30
2022-10-03T07:52:31.370Z,11.40
2022-10-03T07:57:37.942Z,11.40
2022-10-03T08:02:40.832Z,11.50
2022-10-03T08:07:45.142Z,11.50
2022-10-03T08:12:47.921Z,11.50
2022-10-03T08:17:50.893Z,11.40
2022-10-03T08:22:54.014Z,11.40
2022-10-03T08:27:56.978Z,11.30
2022-10-03T08:32:59.918Z,11.30
2022-10-03T08:38:03.349Z,11.30
2022-10-03T08:43:06.128Z,11.50
2022-10-03T08:48:10.484Z,11.70
2022-10-03T08:53:13.302Z,12.20
2022-10-03T08:58:16.700Z,12.30
2022-10-03T09:03:33.584Z,12.40
2022-10-03T09:08:38.570Z,12.30
2022-10-03T09:13:41.424Z,12.40
2022-10-03T09:18:44.167Z,12.30
2022-10-03T09:23:46.979Z,12.20
2022-10-03T09:28:49.979Z,12.40
2022-10-03T09:33:55.368Z,12.80
2022-10-03T09:38:59.238Z,13.00
2022-10-03T09:44:02.171Z,13.10
2022-10-03T09:49:05.176Z,12.90
2022-10-03T09:54:07.868Z,12.90
2022-10-03T09:59:12.213Z,13.20
2022-10-03T10:04:14.931Z,13.70
2022-10-03T10:09:17.642Z,14.00
2022-10-03T10:14:20.397Z,14.00
2022-10-03T10:19:23.607Z,14.10
2022-10-03T10:24:26.381Z,14.00
2022-10-03T10:29:29.886Z,14.00
2022-10-03T10:34:32.764Z,14.10
2022-10-03T10:39:35.562Z,14.30
2022-10-03T10:44:40.347Z,14.10
2022-10-03T10:49:45.891Z,13.80
2022-10-03T10:54:49.189Z,13.60
2022-10-03T10:59:52.030Z,13.80
2022-10-03T11:04:55.998Z,13.90
2022-10-03T11:09:59.055Z,14.20
2022-10-03T11:15:02.507Z,14.50
2022-10-03T11:20:05.705Z,14.70
2022-10-03T11:25:09.093Z,14.60
2022-10-03T11:30:11.837Z,14.20
2022-10-03T11:35:15.083Z,14.00
2022-10-03T11:40:23.097Z,14.00
2022-10-03T11:45:27.050Z,14.20
2022-10-03T11:50:30.631Z,14.60
2022-10-03T11:55:34.182Z,14.70
2022-10-03T12:00:37.021Z,14.60
2022-10-03T12:05:39.748Z,14.70
2022-10-03T12:10:42.532Z,14.70
2022-10-03T12:15:45.730Z,14.90
2022-10-03T12:20:48.514Z,15.30
2022-10-03T12:25:51.222Z,15.40
2022-10-03T12:30:55.274Z,15.10
2022-10-03T12:35:58.031Z,15.00
2022-10-03T12:41:02.106Z,14.80
2022-10-03T12:46:06.048Z,14.60
2022-10-03T12:51:08.825Z,14.60
2022-10-03T12:56:12.761Z,14.90
2022-10-03T13:01:15.548Z,15.30
2022-10-03T13:06:18.339Z,15.20
2022-10-03T13:11:21.249Z,15.20
2022-10-03T13:16:24.489Z,14.70
2022-10-03T13:21:45.344Z,14.90
2022-10-03T13:26:50.717Z,15.30
2022-10-03T13:31:54.130Z,15.30
2022-10-03T13:36:57.044Z,15.20
2022-10-03T13:42:00.385Z,14.90
2022-10-03T13:47:03.116Z,14.70
2022-10-03T13:52:07.471Z,14.50
2022-10-03T13:57:10.351Z,14.40
2022-10-03T14:02:13.337Z,12.70
2022-10-03T14:07:16.272Z,14.10
2022-10-03T14:12:33.079Z,14.10
2022-10-03T14:17:42.327Z,14.00
2022-10-03T14:22:45.873Z,14.00
2022-10-03T14:27:48.837Z,13.90
2022-10-03T14:32:52.044Z,14.00
2022-10-03T14:37:55.138Z,13.40
2022-10-03T14:42:57.939Z,13.40
2022-10-03T14:48:02.738Z,13.40
2022-10-03T14:53:06.409Z,13.50
2022-10-03T14:58:11.781Z,13.50
2022-10-03T15:03:14.832Z,13.50
2022-10-03T15:08:17.715Z,13.50
2022-10-03T15:13:20.544Z,13.50
2022-10-03T15:18:24.326Z,13.30
2022-10-03T15:23:27.408Z,13.20
2022-10-03T15:28:30.482Z,13.20
2022-10-03T15:33:33.365Z,13.20
2022-10-03T15:38:36.034Z,15.70
2022-10-03T15:43:40.517Z,13.10
2022-10-03T15:48:47.340Z,13.00
2022-10-03T15:53:50.424Z,12.90
2022-10-03T15:58:58.576Z,12.90
2022-10-03T16:04:01.321Z,12.80
2022-10-03T16:09:04.165Z,12.60
2022-10-03T16:14:07.162Z,12.50
2022-10-03T16:19:09.950Z,12.30
2022-10-03T16:24:12.863Z,12.20
2022-10-03T16:29:15.704Z,12.00
2022-10-03T16:34:18.457Z,12.00
2022-10-03T16:39:22.788Z,11.70
2022-10-03T16:44:29.277Z,11.60
2022-10-03T16:49:50.694Z,11.60
2022-10-03T16:54:53.702Z,11.50
2022-10-03T16:59:56.570Z,11.30
2022-10-03T17:10:03.218Z,11.00
2022-10-03T17:15:06.385Z,10.90
2022-10-03T17:20:09.235Z,10.80
2022-10-03T17:25:16.158Z,10.70
2022-10-03T17:30:21.296Z,10.60
2022-10-03T17:35:24.166Z,10.50
2022-10-03T17:40:27.672Z,10.40
2022-10-03T17:45:32.010Z,10.20
2022-10-03T17:50:34.777Z,10.20
2022-10-03T17:55:38.160Z,10.10
2022-10-03T18:00:41.892Z,10.00
2022-10-03T18:05:44.850Z,10.00
2022-10-03T18:10:49.255Z,10.10
2022-10-03T18:15:52.300Z,10.20
2022-10-03T18:20:58.494Z,9.90
2022-10-03T18:26:20.693Z,9.90
2022-10-03T18:31:23.811Z,9.80
2022-10-03T18:36:29.230Z,9.70
2022-10-03T18:41:32.010Z,9.50
2022-10-03T18:46:35.083Z,9.40
2022-10-03T18:51:38.250Z,9.20
2022-10-03T18:56:41.567Z,9.10
2022-10-03T19:01:44.564Z,9.10
2022-10-03T19:06:53.558Z,9.10
2022-10-03T19:11:56.322Z,9.00
2022-10-03T19:16:59.076Z,8.90
2022-10-03T19:22:01.950Z,8.80
2022-10-03T19:27:05.698Z,8.80
2022-10-03T19:32:09.323Z,8.90
2022-10-03T19:37:13.725Z,8.90
2022-10-03T19:42:18.131Z,8.80
2022-10-03T19:47:20.881Z,8.80
2022-10-03T19:52:23.789Z,8.80
2022-10-03T19:57:27.267Z,8.70
2022-10-03T20:02:30.323Z,8.60
2022-10-03T20:07:33.309Z,8.60
2022-10-03T20:12:38.381Z,8.50
2022-10-03T20:17:44.658Z,8.50
2022-10-03T20:22:47.745Z,8.50
2022-10-03T20:27:50.956Z,8.40
2022-10-03T20:32:53.827Z,8.40
2022-10-03T20:37:56.542Z,8.40
2022-10-03T20:43:00.055Z,8.10
2022-10-03T20:48:03.034Z,8.00
2022-10-03T20:53:05.803Z,8.00
2022-10-03T20:58:08.460Z,7.90
2022-10-03T21:03:11.385Z,7.80
2022-10-03T21:08:17.439Z,7.80
2022-10-03T21:13:20.294Z,7.70
2022-10-03T21:18:22.985Z,7.70
2022-10-03T21:23:25.912Z,7.70
2022-10-03T21:28:28.665Z,7.70
2022-10-03T21:33:31.413Z,7.60
2022-10-03T21:38:36.171Z,7.50
2022-10-03T21:43:38.979Z,7.50
2022-10-03T21:48:41.793Z,7.50
2022-10-03T21:53:44.566Z,7.40
2022-10-03T21:58:47.557Z,7.40
2022-10-03T22:03:51.578Z,7.50
2022-10-03T22:08:54.416Z,7.40
2022-10-03T22:13:57.209Z,7.40
2022-10-03T22:19:00.246Z,7.40
2022-10-03T22:24:02.958Z,7.20
2022-10-03T22:29:05.774Z,7.20
2022-10-03T22:34:08.904Z,7.30
2022-10-03T22:39:11.863Z,7.20
2022-10-03T22:44:17.611Z,7.20
2022-10-03T22:49:20.561Z,7.20
2022-10-03T22:54:23.427Z,7.20
2022-10-03T22:59:26.186Z,7.00
2022-10-03T23:04:28.945Z,7.10
2022-10-03T23:09:31.730Z,7.20
2022-10-03T23:19:37.762Z,7.00
2022-10-03T23:24:40.459Z,7.00
2022-10-03T23:29:43.293Z,6.80
2022-10-03T23:34:46.517Z,6.80
2022-10-03T23:39:49.676Z,6.70
2022-10-03T23:44:52.761Z,6.70
2022-10-03T23:50:01.346Z,6.70
2022-10-03T23:55:04.385Z,6.70
